Time;durP1;ratioP1;P1;durP2;ratioP2;P2;SDS_P1;SDS_P2;PMS_P1;PMS_P2;Temp;Humidity;BMP_temperature;BMP_pressure;BME280_temperature;BME280_humidity;BME280_pressure;Samples;Min_cycle;Max_cycle;Signal;HPM_P1;HPM_P2
2023/03/13 00:01:46;;;;;;;3.67;0.80;;;;;;;;;;5124182;28;20405;-75
2023/03/13 00:04:18;;;;;;;3.97;0.80;;;;;;;;;;5123973;28;20043;-76
2023/03/13 00:06:49;;;;;;;1.85;0.70;;;;;;;;;;5123524;28;20081;-73
2023/03/13 00:09:22;;;;;;;2.40;0.68;;;;;;;;;;5123337;28;20039;-74
2023/03/13 00:11:52;;;;;;;3.20;0.93;;;;;;;;;;5123887;28;20035;-74
2023/03/13 00:14:23;;;;;;;2.40;0.75;;;;;;;;;;5123870;28;20040;-74
2023/03/13 00:16:53;;;;;;;9.00;0.90;;;;;;;;;;5123789;28;20036;-73
2023/03/13 00:19:24;;;;;;;1.65;0.60;;;;;;;;;;5123277;28;20044;-73
2023/03/13 00:21:54;;;;;;;4.03;0.57;;;;;;;;;;5123358;28;20055;-73
2023/03/13 00:24:25;;;;;;;4.78;0.85;;;;;;;;;;5122990;28;20048;-73
2023/03/13 00:26:55;;;;;;;3.08;1.00;;;;;;;;;;5122455;28;20039;-73
2023/03/13 00:29:25;;;;;;;2.47;0.80;;;;;;;;;;5108607;28;20044;-74
2023/03/13 00:31:55;;;;;;;2.08;0.65;;;;;;;;;;5101025;28;20039;-74
2023/03/13 00:34:26;;;;;;;2.00;0.55;;;;;;;;;;5103116;28;20043;-74
2023/03/13 00:36:56;;;;;;;3.10;0.50;;;;;;;;;;5102672;28;20039;-73
2023/03/13 00:39:26;;;;;;;1.17;0.60;;;;;;;;;;5092788;28;20043;-73
2023/03/13 00:41:58;;;;;;;1.48;0.73;;;;;;;;;;5089586;28;20414;-74
2023/03/13 00:44:30;;;;;;;4.70;0.68;;;;;;;;;;5089794;28;20036;-73
2023/03/13 00:47:00;;;;;;;2.85;0.70;;;;;;;;;;5089150;28;20036;-74
2023/03/13 00:49:30;;;;;;;2.45;0.70;;;;;;;;;;5089319;28;20145;-73
2023/03/13 00:52:02;;;;;;;1.98;0.82;;;;;;;;;;5088767;28;20406;-76
2023/03/13 00:54:32;;;;;;;1.60;0.60;;;;;;;;;;5088683;28;20039;-73
2023/03/13 00:57:03;;;;;;;2.75;0.70;;;;;;;;;;5088994;28;20536;-74
2023/03/13 00:59:35;;;;;;;1.15;0.60;;;;;;;;;;5088730;28;20044;-75
2023/03/13 01:02:05;;;;;;;5.35;0.70;;;;;;;;;;5087519;28;20059;-75
2023/03/13 01:04:36;;;;;;;1.98;0.50;;;;;;;;;;5087004;28;20047;-75
2023/03/13 01:07:06;;;;;;;0.70;0.47;;;;;;;;;;5089297;28;20044;-74
2023/03/13 01:09:37;;;;;;;3.42;0.63;;;;;;;;;;5087596;28;20040;-75
2023/03/13 01:12:07;;;;;;;0.98;0.68;;;;;;;;;;5086794;28;20052;-74
2023/03/13 01:14:37;;;;;;;4.07;0.70;;;;;;;;;;5087773;28;20059;-75
2023/03/13 01:17:10;;;;;;;0.95;0.50;;;;;;;;;;5088911;28;20048;-75
2023/03/13 01:19:40;;;;;;;1.80;0.80;;;;;;;;;;5085995;28;20056;-72
2023/03/13 01:22:11;;;;;;;3.42;0.63;;;;;;;;;;5086489;28;20628;-76
2023/03/13 01:24:42;;;;;;;0.82;0.47;;;;;;;;;;5086822;28;20052;-72
2023/03/13 01:27:13;;;;;;;1.50;0.70;;;;;;;;;;5088252;28;20048;-75
2023/03/13 01:29:43;;;;;;;2.45;0.60;;;;;;;;;;5086505;28;20048;-75
2023/03/13 01:32:13;;;;;;;0.60;0.40;;;;;;;;;;5086711;28;20059;-73
2023/03/13 01:34:43;;;;;;;1.83;0.73;;;;;;;;;;5087070;28;20052;-74
2023/03/13 01:37:14;;;;;;;1.95;0.52;;;;;;;;;;5085747;28;20067;-74
2023/03/13 01:39:44;;;;;;;2.08;0.55;;;;;;;;;;5087581;28;20040;-74
2023/03/13 01:42:14;;;;;;;1.50;0.70;;;;;;;;;;5085171;28;20085;-74
2023/03/13 01:44:57;;;;;;;2.42;0.70;;;;;;;;;;5087872;28;20047;-75
2023/03/13 01:47:28;;;;;;;5.32;0.82;;;;;;;;;;5085481;28;20052;-75
2023/03/13 01:50:11;;;;;;;1.40;0.50;;;;;;;;;;5084870;28;20056;-75
2023/03/13 01:52:51;;;;;;;2.67;0.93;;;;;;;;;;5086195;28;20071;-75
2023/03/13 01:55:26;;;;;;;;;;;;;;;;;;5086047;28;20060;-73
2023/03/13 01:57:58;;;;;;;2.85;0.70;;;;;;;;;;5086450;28;20309;-73
2023/03/13 02:00:33;;;;;;;2.85;0.55;;;;;;;;;;5086200;28;20048;-75
2023/03/13 02:03:14;;;;;;;2.42;0.63;;;;;;;;;;5086141;28;20052;-75
2023/03/13 02:05:46;;;;;;;1.45;0.50;;;;;;;;;;5087881;28;20048;-73
2023/03/13 02:08:50;;;;;;;1.73;0.55;;;;;;;;;;5087496;28;20113;-74
2023/03/13 02:11:43;;;;;;;1.33;0.63;;;;;;;;;;5062713;28;20063;-74
2023/03/13 02:14:17;;;;;;;1.85;0.50;;;;;;;;;;5087658;28;20063;-74
2023/03/13 02:16:51;;;;;;;0.98;0.40;;;;;;;;;;5085985;28;20643;-74
2023/03/13 02:19:44;;;;;;;0.70;0.50;;;;;;;;;;5085493;28;20055;-75
2023/03/13 02:22:27;;;;;;;1.17;0.43;;;;;;;;;;5087691;28;20063;-74
2023/03/13 02:25:24;;;;;;;4.13;0.68;;;;;;;;;;5087924;28;20048;-75
2023/03/13 02:28:02;;;;;;;0.98;0.40;;;;;;;;;;5069425;28;20052;-75
2023/03/13 02:30:35;;;;;;;3.35;0.57;;;;;;;;;;5085326;28;20403;-75
2023/03/13 02:33:06;;;;;;;2.28;0.50;;;;;;;;;;5087149;28;20047;-73
2023/03/13 02:35:38;;;;;;;1.00;0.52;;;;;;;;;;5087398;28;20055;-73
2023/03/13 02:38:19;;;;;;;2.00;0.50;;;;;;;;;;5085395;28;20059;-74
2023/03/13 02:40:50;;;;;;;1.20;0.35;;;;;;;;;;5085423;28;20060;-75
2023/03/13 02:43:32;;;;;;;1.52;0.60;;;;;;;;;;5084996;28;20055;-75
2023/03/13 02:46:13;;;;;;;2.60;0.40;;;;;;;;;;5085975;28;20407;-73
2023/03/13 02:48:49;;;;;;;3.40;0.60;;;;;;;;;;5085517;28;20056;-75
2023/03/13 02:51:31;;;;;;;1.90;0.47;;;;;;;;;;5085290;28;20050;-74
2023/03/13 02:54:10;;;;;;;1.85;0.57;;;;;;;;;;5085145;28;20056;-74
2023/03/13 02:56:43;;;;;;;1.40;0.50;;;;;;;;;;5085143;28;20071;-74
2023/03/13 02:59:13;;;;;;;2.17;0.43;;;;;;;;;;5087511;28;20051;-74
2023/03/13 03:01:44;;;;;;;1.75;0.60;;;;;;;;;;5084584;28;20048;-74
2023/03/13 03:04:16;;;;;;;1.85;0.63;;;;;;;;;;5085150;28;20053;-76
2023/03/13 03:06:53;;;;;;;4.05;0.52;;;;;;;;;;5085228;28;20514;-73
2023/03/13 03:09:24;;;;;;;1.70;1.00;;;;;;;;;;5084943;28;20062;-75
2023/03/13 03:11:58;;;;;;;3.05;0.63;;;;;;;;;;5084589;28;20059;-74
2023/03/13 03:14:30;;;;;;;1.00;0.40;;;;;;;;;;5084133;28;20052;-72
2023/03/13 03:17:03;;;;;;;2.85;0.60;;;;;;;;;;5085607;28;20048;-74
2023/03/13 03:19:33;;;;;;;3.42;0.60;;;;;;;;;;5085827;28;20040;-74
2023/03/13 03:22:03;;;;;;;2.45;0.60;;;;;;;;;;5084728;28;20063;-74
2023/03/13 03:24:34;;;;;;;1.83;0.63;;;;;;;;;;5086530;28;20048;-74
2023/03/13 03:27:05;;;;;;;2.20;0.57;;;;;;;;;;5085156;28;20052;-75
2023/03/13 03:29:45;;;;;;;3.55;0.63;;;;;;;;;;5085022;28;20051;-74
2023/03/13 03:32:16;;;;;;;2.85;0.63;;;;;;;;;;5084549;28;20065;-75
2023/03/13 03:34:46;;;;;;;4.10;0.60;;;;;;;;;;5085719;28;20518;-71
2023/03/13 03:37:17;;;;;;;1.00;0.50;;;;;;;;;;5086700;28;20044;-75
2023/03/13 03:39:48;;;;;;;5.10;0.63;;;;;;;;;;5085297;28;20514;-76
2023/03/13 03:42:19;;;;;;;2.60;0.68;;;;;;;;;;5084797;28;20502;-75
2023/03/13 03:44:49;;;;;;;7.03;0.82;;;;;;;;;;5084215;28;20631;-76
2023/03/13 03:47:20;;;;;;;4.82;0.73;;;;;;;;;;5084718;28;20507;-74
2023/03/13 03:49:52;;;;;;;7.45;0.95;;;;;;;;;;5084538;28;20056;-73
2023/03/13 03:52:22;;;;;;;1.98;0.70;;;;;;;;;;5085076;28;20055;-74
2023/03/13 03:54:52;;;;;;;7.70;0.80;;;;;;;;;;5084658;28;20048;-74
2023/03/13 03:57:24;;;;;;;3.25;0.75;;;;;;;;;;5085334;28;20056;-75
2023/03/13 03:59:54;;;;;;;4.57;0.70;;;;;;;;;;5086594;28;20066;-74
2023/03/13 04:02:25;;;;;;;4.72;0.73;;;;;;;;;;5084858;28;20509;-75
2023/03/13 04:04:57;;;;;;;1.63;0.55;;;;;;;;;;5084377;28;20044;-75
2023/03/13 04:07:33;;;;;;;2.70;0.95;;;;;;;;;;5068749;28;20414;-76
2023/03/13 04:10:05;;;;;;;1.88;0.68;;;;;;;;;;5086522;28;20055;-72
2023/03/13 04:12:40;;;;;;;3.80;0.80;;;;;;;;;;5084578;28;20047;-73
2023/03/13 04:15:11;;;;;;;3.90;1.08;;;;;;;;;;5088890;28;21260;-73
2023/03/13 04:17:41;;;;;;;3.03;0.70;;;;;;;;;;5088213;28;20422;-74
2023/03/13 04:20:13;;;;;;;5.78;0.93;;;;;;;;;;5088155;28;20052;-73
2023/03/13 04:22:44;;;;;;;2.17;0.77;;;;;;;;;;5087642;28;20055;-74
2023/03/13 04:25:16;;;;;;;2.30;0.70;;;;;;;;;;5087730;28;20048;-73
2023/03/13 04:27:49;;;;;;;1.00;0.60;;;;;;;;;;5087807;28;20052;-73
2023/03/13 04:30:24;;;;;;;2.90;0.80;;;;;;;;;;5087981;28;20063;-75
2023/03/13 04:33:14;;;;;;;4.70;0.90;;;;;;;;;;5090008;28;20051;-74
2023/03/13 04:36:04;;;;;;;2.08;0.70;;;;;;;;;;5089788;28;20522;-73
2023/03/13 04:38:52;;;;;;;1.02;0.80;;;;;;;;;;5090083;28;20056;-74
2023/03/13 04:41:56;;;;;;;2.00;0.80;;;;;;;;;;5087181;28;20056;-74
2023/03/13 04:44:52;;;;;;;3.30;0.70;;;;;;;;;;5087551;28;20058;-74
2023/03/13 04:47:48;;;;;;;5.13;0.75;;;;;;;;;;5051327;28;20056;-74
2023/03/13 04:50:36;;;;;;;2.92;0.82;;;;;;;;;;5090131;28;20514;-74
2023/03/13 04:53:16;;;;;;;0.70;0.70;;;;;;;;;;5087072;28;20426;-73
2023/03/13 04:55:55;;;;;;;2.40;0.77;;;;;;;;;;5087934;28;20422;-75
2023/03/13 04:58:52;;;;;;;8.27;0.80;;;;;;;;;;5086892;28;20529;-73
2023/03/13 05:01:43;;;;;;;3.60;0.93;;;;;;;;;;5046828;28;20079;-73
2023/03/13 05:04:32;;;;;;;1.25;0.70;;;;;;;;;;5087219;28;20059;-74
2023/03/13 05:07:20;;;;;;;1.92;0.80;;;;;;;;;;5086794;28;20887;-73
2023/03/13 05:10:10;;;;;;;3.85;0.70;;;;;;;;;;5088276;28;20647;-74
2023/03/13 05:13:06;;;;;;;4.63;0.93;;;;;;;;;;5088628;28;20048;-73
2023/03/13 05:15:51;;;;;;;3.08;0.90;;;;;;;;;;5088869;28;20052;-72
2023/03/13 05:18:40;;;;;;;2.75;0.90;;;;;;;;;;5096206;28;20052;-73
2023/03/13 05:21:43;;;;;;;3.05;0.82;;;;;;;;;;5054782;28;20406;-73
2023/03/13 05:24:33;;;;;;;3.60;0.90;;;;;;;;;;5087680;28;20406;-72
2023/03/13 05:27:12;;;;;;;7.57;1.00;;;;;;;;;;5088806;28;20048;-73
2023/03/13 05:30:01;;;;;;;3.83;0.80;;;;;;;;;;5088276;28;20052;-74
2023/03/13 05:32:41;;;;;;;0.98;0.80;;;;;;;;;;5086375;28;20059;-74
2023/03/13 05:35:49;;;;;;;1.80;1.00;;;;;;;;;;5066776;28;20429;-73
2023/03/13 05:38:52;;;;;;;4.70;1.10;;;;;;;;;;5054131;28;20072;-74
2023/03/13 05:41:40;;;;;;;3.28;0.77;;;;;;;;;;5091948;28;20048;-73
2023/03/13 05:44:34;;;;;;;2.78;0.80;;;;;;;;;;5080309;28;20060;-73
2023/03/13 05:47:09;;;;;;;0.90;0.70;;;;;;;;;;5088363;28;20414;-73
2023/03/13 05:49:54;;;;;;;2.88;0.70;;;;;;;;;;5086371;28;20055;-73
2023/03/13 05:52:26;;;;;;;1.42;0.90;;;;;;;;;;5090667;28;20067;-74
2023/03/13 05:55:26;;;;;;;;;;;;;;;;;;5087073;28;20048;-73
2023/03/13 05:58:20;;;;;;;0.60;0.60;;;;;;;;;;5085967;28;20338;-74
2023/03/13 06:01:10;;;;;;;7.65;0.90;;;;;;;;;;5095184;28;20055;-72
2023/03/13 06:04:10;;;;;;;2.25;0.88;;;;;;;;;;5074491;28;20056;-72
2023/03/13 06:06:42;;;;;;;4.38;1.08;;;;;;;;;;5086161;28;20051;-72
2023/03/13 06:09:13;;;;;;;7.13;0.90;;;;;;;;;;5086490;28;20052;-72
2023/03/13 06:11:43;;;;;;;4.70;0.80;;;;;;;;;;5085768;28;20510;-73
2023/03/13 06:14:14;;;;;;;1.48;0.80;;;;;;;;;;5086186;28;20056;-73
2023/03/13 06:16:56;;;;;;;4.50;0.80;;;;;;;;;;5085510;28;20055;-73
2023/03/13 06:19:29;;;;;;;4.50;0.88;;;;;;;;;;5086003;28;20506;-75
2023/03/13 06:21:59;;;;;;;1.27;0.82;;;;;;;;;;5087561;28;20525;-74
2023/03/13 06:24:29;;;;;;;2.45;0.70;;;;;;;;;;5087270;28;20055;-74
2023/03/13 06:26:59;;;;;;;5.78;1.10;;;;;;;;;;5087409;28;20059;-73
2023/03/13 06:29:30;;;;;;;2.05;1.00;;;;;;;;;;5087549;28;21264;-74
2023/03/13 06:32:02;;;;;;;3.97;1.27;;;;;;;;;;5087422;28;20044;-74
2023/03/13 06:34:32;;;;;;;3.08;0.98;;;;;;;;;;5086184;28;20105;-75
2023/03/13 06:37:02;;;;;;;5.15;1.23;;;;;;;;;;5086396;28;20052;-72
2023/03/13 06:39:33;;;;;;;2.63;1.40;;;;;;;;;;5087385;28;20055;-73
2023/03/13 06:42:04;;;;;;;3.47;1.00;;;;;;;;;;5087517;28;20048;-74
2023/03/13 06:44:34;;;;;;;2.33;1.05;;;;;;;;;;5085214;28;20446;-74
2023/03/13 06:47:04;;;;;;;2.00;0.80;;;;;;;;;;5086911;28;20044;-75
2023/03/13 06:49:36;;;;;;;1.70;0.80;;;;;;;;;;5086598;28;20059;-74
2023/03/13 06:52:07;;;;;;;1.17;0.80;;;;;;;;;;5087172;28;20044;-74
2023/03/13 06:54:37;;;;;;;3.65;1.00;;;;;;;;;;5086638;28;20044;-73
2023/03/13 06:57:07;;;;;;;1.25;1.00;;;;;;;;;;5086841;28;20044;-74
2023/03/13 06:59:38;;;;;;;3.72;1.20;;;;;;;;;;5087626;28;20083;-72
2023/03/13 07:02:13;;;;;;;2.22;1.00;;;;;;;;;;5085778;28;20052;-74
2023/03/13 07:04:45;;;;;;;4.28;1.00;;;;;;;;;;5086853;28;20036;-74
2023/03/13 07:07:15;;;;;;;5.72;1.10;;;;;;;;;;5085074;28;20067;-72
2023/03/13 07:09:59;;;;;;;2.13;0.93;;;;;;;;;;5084575;28;20437;-74
2023/03/13 07:12:30;;;;;;;2.78;1.05;;;;;;;;;;5084847;28;20048;-72
2023/03/13 07:15:01;;;;;;;3.65;0.90;;;;;;;;;;5087004;28;20055;-72
2023/03/13 07:17:31;;;;;;;2.92;1.02;;;;;;;;;;5086642;28;20044;-73
2023/03/13 07:20:03;;;;;;;3.22;1.30;;;;;;;;;;5086303;28;20067;-73
2023/03/13 07:22:34;;;;;;;1.38;1.05;;;;;;;;;;5086400;28;20107;-73
2023/03/13 07:25:06;;;;;;;1.33;1.00;;;;;;;;;;5086610;28;20036;-74
2023/03/13 07:27:37;;;;;;;4.75;1.20;;;;;;;;;;5086781;28;20048;-75
2023/03/13 07:30:08;;;;;;;5.95;1.00;;;;;;;;;;5084480;28;20407;-74
2023/03/13 07:32:38;;;;;;;2.78;1.05;;;;;;;;;;5085839;28;20048;-73
2023/03/13 07:35:11;;;;;;;4.03;1.40;;;;;;;;;;5086573;28;20495;-73
2023/03/13 07:37:41;;;;;;;5.50;1.35;;;;;;;;;;5086437;28;20059;-73
2023/03/13 07:40:12;;;;;;;4.03;1.15;;;;;;;;;;5086280;28;20048;-74
2023/03/13 07:42:43;;;;;;;3.58;1.20;;;;;;;;;;5086760;28;20417;-74
2023/03/13 07:45:13;;;;;;;6.65;1.33;;;;;;;;;;5086263;28;20058;-72
2023/03/13 07:47:43;;;;;;;6.88;1.20;;;;;;;;;;5086054;28;20066;-75
2023/03/13 07:50:13;;;;;;;4.22;1.00;;;;;;;;;;5090126;28;20044;-73
2023/03/13 07:52:44;;;;;;;3.85;0.95;;;;;;;;;;5090604;28;20059;-74
2023/03/13 07:55:15;;;;;;;1.45;1.20;;;;;;;;;;5090269;28;20051;-74
2023/03/13 07:57:47;;;;;;;6.13;1.30;;;;;;;;;;5090613;28;20040;-73
2023/03/13 08:00:18;;;;;;;5.72;1.20;;;;;;;;;;5088084;28;20059;-73
2023/03/13 08:02:47;;;;;;;3.35;1.10;;;;;;;;;;5090611;28;20055;-73
2023/03/13 08:05:18;;;;;;;9.45;1.42;;;;;;;;;;5090487;28;20051;-73
2023/03/13 08:07:48;;;;;;;3.60;1.20;;;;;;;;;;5090296;28;20406;-74
2023/03/13 08:10:19;;;;;;;4.70;1.30;;;;;;;;;;5089263;28;20534;-73
2023/03/13 08:12:49;;;;;;;5.10;1.17;;;;;;;;;;5090109;28;20056;-73
2023/03/13 08:15:24;;;;;;;5.00;1.10;;;;;;;;;;5089865;28;20044;-74
2023/03/13 08:17:56;;;;;;;2.72;1.52;;;;;;;;;;5090375;28;20056;-73
2023/03/13 08:20:27;;;;;;;2.72;1.00;;;;;;;;;;5090944;28;20036;-72
2023/03/13 08:22:58;;;;;;;1.67;0.93;;;;;;;;;;5090029;28;20672;-74
2023/03/13 08:25:28;;;;;;;2.90;0.90;;;;;;;;;;5090038;28;20055;-74
2023/03/13 08:27:58;;;;;;;2.58;1.00;;;;;;;;;;5090355;28;20044;-75
2023/03/13 08:30:31;;;;;;;5.35;0.85;;;;;;;;;;5090090;28;20063;-73
2023/03/13 08:33:02;;;;;;;3.55;1.02;;;;;;;;;;5090029;28;20414;-73
2023/03/13 08:35:35;;;;;;;5.60;1.17;;;;;;;;;;5088491;28;20059;-72
2023/03/13 08:38:07;;;;;;;2.83;0.93;;;;;;;;;;5089791;28;20048;-73
2023/03/13 08:40:38;;;;;;;1.70;1.00;;;;;;;;;;5089824;28;20055;-75
2023/03/13 08:43:08;;;;;;;3.42;0.95;;;;;;;;;;5089492;28;20051;-75
2023/03/13 08:45:39;;;;;;;2.58;0.80;;;;;;;;;;5088338;28;20059;-74
2023/03/13 08:48:09;;;;;;;1.50;0.82;;;;;;;;;;5089304;28;20055;-74
2023/03/13 08:50:39;;;;;;;1.73;0.90;;;;;;;;;;5089589;28;20047;-74
2023/03/13 08:53:10;;;;;;;3.38;1.50;;;;;;;;;;5088489;28;20051;-73
2023/03/13 08:55:41;;;;;;;1.08;0.88;;;;;;;;;;5089249;28;20047;-74
2023/03/13 08:58:12;;;;;;;6.60;1.02;;;;;;;;;;5088926;28;20506;-73
2023/03/13 09:00:41;;;;;;;7.07;0.90;;;;;;;;;;5088534;28;20549;-75
2023/03/13 09:03:11;;;;;;;2.85;0.85;;;;;;;;;;5088842;28;20654;-74
2023/03/13 09:05:42;;;;;;;7.38;1.02;;;;;;;;;;5088914;28;21189;-75
2023/03/13 09:08:25;;;;;;;3.80;0.82;;;;;;;;;;5088764;28;20051;-75
2023/03/13 09:11:00;;;;;;;11.63;1.50;;;;;;;;;;5089706;28;20055;-76
2023/03/13 09:13:32;;;;;;;5.38;1.10;;;;;;;;;;5089239;28;20052;-77
2023/03/13 09:16:06;;;;;;;2.25;1.00;;;;;;;;;;5089216;28;20059;-76
2023/03/13 09:18:38;;;;;;;8.80;0.93;;;;;;;;;;5089049;28;20051;-75
2023/03/13 09:21:16;;;;;;;5.75;0.93;;;;;;;;;;5088710;28;20525;-76
2023/03/13 09:23:47;;;;;;;5.30;1.15;;;;;;;;;;5088755;28;20067;-74
2023/03/13 09:26:20;;;;;;;11.25;1.08;;;;;;;;;;5089138;28;20117;-76
2023/03/13 09:28:53;;;;;;;3.42;0.75;;;;;;;;;;5088365;28;20048;-76
2023/03/13 09:31:32;;;;;;;3.83;1.00;;;;;;;;;;5088818;28;20052;-75
2023/03/13 09:34:04;;;;;;;9.02;1.63;;;;;;;;;;5087183;28;20063;-74
2023/03/13 09:36:36;;;;;;;6.57;0.90;;;;;;;;;;5088931;28;20402;-73
2023/03/13 09:39:06;;;;;;;5.40;0.98;;;;;;;;;;5088479;28;20044;-75
2023/03/13 09:41:42;;;;;;;7.95;1.00;;;;;;;;;;5087871;28;20052;-74
2023/03/13 09:44:18;;;;;;;10.20;1.13;;;;;;;;;;5088105;28;20048;-74
2023/03/13 09:47:14;;;;;;;3.80;1.10;;;;;;;;;;5086425;28;20071;-76
2023/03/13 09:50:14;;;;;;;3.75;0.80;;;;;;;;;;5088170;28;20044;-76
2023/03/13 09:52:44;;;;;;;4.95;1.10;;;;;;;;;;5087622;28;20047;-74
2023/03/13 09:55:20;;;;;;;7.60;1.10;;;;;;;;;;5088061;28;20040;-74
2023/03/13 09:57:56;;;;;;;2.40;1.02;;;;;;;;;;5087017;28;20048;-74
2023/03/13 10:00:36;;;;;;;4.22;1.40;;;;;;;;;;5088242;28;20052;-75
2023/03/13 10:03:17;;;;;;;5.40;1.50;;;;;;;;;;5087740;28;20051;-75
2023/03/13 10:05:52;;;;;;;8.00;1.80;;;;;;;;;;5088067;28;20044;-75
2023/03/13 10:08:25;;;;;;;5.78;1.45;;;;;;;;;;5088234;28;20123;-75
2023/03/13 10:11:23;;;;;;;7.15;1.60;;;;;;;;;;5084971;28;20074;-77
2023/03/13 10:14:17;;;;;;;7.00;1.85;;;;;;;;;;5087896;28;20040;-75
2023/03/13 10:17:27;;;;;;;11.00;1.60;;;;;;;;;;5087768;28;20517;-74
2023/03/13 10:20:24;;;;;;;13.02;2.17;;;;;;;;;;5084462;28;20407;-75
2023/03/13 10:23:07;;;;;;;5.00;1.50;;;;;;;;;;5087765;28;20040;-76
2023/03/13 10:25:39;;;;;;;6.30;1.67;;;;;;;;;;5108582;28;20054;-75
2023/03/13 10:28:15;;;;;;;7.97;1.30;;;;;;;;;;5108611;28;20051;-77
2023/03/13 10:30:53;;;;;;;5.93;1.50;;;;;;;;;;5108605;28;20047;-75
2023/03/13 10:33:29;;;;;;;9.50;1.67;;;;;;;;;;5109612;28;20040;-77
2023/03/13 10:36:05;;;;;;;5.18;1.73;;;;;;;;;;5109453;28;20062;-74
2023/03/13 10:38:56;;;;;;;3.20;1.83;;;;;;;;;;5110482;28;20055;-76
2023/03/13 10:41:35;;;;;;;7.45;1.45;;;;;;;;;;5109197;28;20044;-76
2023/03/13 10:44:14;;;;;;;16.00;1.88;;;;;;;;;;5109549;28;20043;-76
2023/03/13 10:46:47;;;;;;;10.50;1.60;;;;;;;;;;5109220;28;20490;-76
2023/03/13 10:49:20;;;;;;;10.73;2.25;;;;;;;;;;5106404;28;20047;-77
2023/03/13 10:51:54;;;;;;;21.73;1.65;;;;;;;;;;5108721;28;20043;-74
2023/03/13 10:54:36;;;;;;;6.15;1.55;;;;;;;;;;5110500;28;20044;-75
2023/03/13 10:57:18;;;;;;;8.18;1.20;;;;;;;;;;5109401;28;20047;-76
2023/03/13 10:59:52;;;;;;;3.05;1.20;;;;;;;;;;5111171;28;20044;-76
2023/03/13 11:02:37;;;;;;;3.40;0.90;;;;;;;;;;5111310;28;20067;-76
2023/03/13 11:05:23;;;;;;;7.40;1.00;;;;;;;;;;5114183;28;20051;-76
2023/03/13 11:07:55;;;;;;;6.60;0.85;;;;;;;;;;5113285;28;20502;-76
2023/03/13 11:10:29;;;;;;;1.48;0.70;;;;;;;;;;5112989;28;20394;-76
2023/03/13 11:13:00;;;;;;;4.57;0.90;;;;;;;;;;5115104;28;20048;-76
2023/03/13 11:15:56;;;;;;;4.28;0.90;;;;;;;;;;5111162;28;20054;-76
2023/03/13 11:18:35;;;;;;;10.68;0.90;;;;;;;;;;5109529;28;20052;-75
2023/03/13 11:21:14;;;;;;;6.47;0.88;;;;;;;;;;5108201;28;20047;-78
2023/03/13 11:23:55;;;;;;;7.72;1.00;;;;;;;;;;5108141;28;20048;-75
2023/03/13 11:26:36;;;;;;;3.55;0.63;;;;;;;;;;5107369;28;20069;-80
2023/03/13 11:29:12;;;;;;;2.15;1.00;;;;;;;;;;5111343;28;20074;-74
2023/03/13 11:31:50;;;;;;;1.45;0.43;;;;;;;;;;5114409;28;20161;-76
2023/03/13 11:34:59;;;;;;;2.88;0.50;;;;;;;;;;5107053;28;20051;-76
2023/03/13 11:37:34;;;;;;;1.15;0.50;;;;;;;;;;5105027;28;20055;-75
2023/03/13 11:41:01;;;;;;;0.85;0.40;;;;;;;;;;5106746;28;20484;-76
2023/03/13 11:43:44;;;;;;;2.03;0.77;;;;;;;;;;5043654;28;20048;-76
2023/03/13 11:46:39;;;;;;;4.85;1.00;;;;;;;;;;5043500;28;20045;-78
2023/03/13 11:49:22;;;;;;;2.67;0.57;;;;;;;;;;5094207;28;20526;-76
2023/03/13 11:52:26;;;;;;;1.25;0.65;;;;;;;;;;5105425;28;20067;-76
2023/03/13 11:55:23;;;;;;;1.45;0.57;;;;;;;;;;5106989;28;20055;-75
2023/03/13 11:58:20;;;;;;;1.70;0.60;;;;;;;;;;5106722;28;20047;-74
2023/03/13 12:01:17;;;;;;;3.20;0.70;;;;;;;;;;5107608;28;20054;-75
2023/03/13 12:03:56;;;;;;;6.78;0.70;;;;;;;;;;5106936;28;20043;-74
2023/03/13 12:06:40;;;;;;;2.53;0.73;;;;;;;;;;5104551;28;20058;-75
2023/03/13 12:09:12;;;;;;;1.70;0.65;;;;;;;;;;5106683;28;20044;-74
2023/03/13 12:11:53;;;;;;;2.78;0.60;;;;;;;;;;5106330;28;20047;-74
2023/03/13 12:14:55;;;;;;;3.40;0.85;;;;;;;;;;5106105;28;20052;-74
2023/03/13 12:17:28;;;;;;;3.75;0.77;;;;;;;;;;5074669;28;20047;-75
2023/03/13 12:20:11;;;;;;;3.83;0.70;;;;;;;;;;5106519;28;20070;-79
2023/03/13 12:23:10;;;;;;;1.05;0.63;;;;;;;;;;5105824;28;20055;-74
2023/03/13 12:25:52;;;;;;;0.82;0.60;;;;;;;;;;5106097;28;20039;-74
2023/03/13 12:28:34;;;;;;;2.50;0.90;;;;;;;;;;5106698;28;20050;-74
2023/03/13 12:31:33;;;;;;;2.00;0.55;;;;;;;;;;5105723;28;20055;-75
2023/03/13 12:34:12;;;;;;;3.25;0.52;;;;;;;;;;5106269;28;20489;-75
2023/03/13 12:37:11;;;;;;;3.85;0.73;;;;;;;;;;5109693;28;20809;-75
2023/03/13 12:39:54;;;;;;;2.80;0.90;;;;;;;;;;5109602;28;20056;-75
2023/03/13 12:42:31;;;;;;;3.13;0.90;;;;;;;;;;5110144;28;20062;-75
2023/03/13 12:45:01;;;;;;;9.38;0.75;;;;;;;;;;5109965;28;20047;-75
2023/03/13 12:47:42;;;;;;;6.78;0.80;;;;;;;;;;5109623;28;20058;-75
2023/03/13 12:50:29;;;;;;;2.05;0.60;;;;;;;;;;5109460;28;20411;-74
2023/03/13 12:53:20;;;;;;;2.00;0.77;;;;;;;;;;5108848;28;20047;-75
2023/03/13 12:56:09;;;;;;;4.45;0.90;;;;;;;;;;5108196;28;20043;-75
2023/03/13 12:58:44;;;;;;;2.35;0.70;;;;;;;;;;5109587;28;20039;-75
2023/03/13 13:01:44;;;;;;;2.28;0.50;;;;;;;;;;5108015;28;20067;-75
2023/03/13 13:04:19;;;;;;;3.55;0.80;;;;;;;;;;5108822;28;20063;-75
2023/03/13 13:06:59;;;;;;;1.83;0.75;;;;;;;;;;5109540;28;20058;-75
2023/03/13 13:09:57;;;;;;;2.92;0.77;;;;;;;;;;5109182;28;20056;-75
2023/03/13 13:12:30;;;;;;;9.55;0.80;;;;;;;;;;5109453;28;20513;-75
2023/03/13 13:15:27;;;;;;;2.58;0.80;;;;;;;;;;5109447;28;20070;-75
2023/03/13 13:18:19;;;;;;;1.23;0.68;;;;;;;;;;5102577;28;20048;-76
2023/03/13 13:21:15;;;;;;;2.83;0.63;;;;;;;;;;5109163;28;20040;-75
2023/03/13 13:23:48;;;;;;;1.80;0.70;;;;;;;;;;5108857;28;20054;-74
2023/03/13 13:26:25;;;;;;;3.58;0.70;;;;;;;;;;5108737;28;20051;-76
2023/03/13 13:29:01;;;;;;;3.55;0.90;;;;;;;;;;5109605;28;20044;-78
2023/03/13 13:31:55;;;;;;;1.40;0.73;;;;;;;;;;5109340;28;20043;-75
2023/03/13 13:34:39;;;;;;;1.92;0.80;;;;;;;;;;5108569;28;20044;-75
2023/03/13 13:37:12;;;;;;;2.33;0.80;;;;;;;;;;5108756;28;20043;-75
2023/03/13 13:39:53;;;;;;;1.38;0.70;;;;;;;;;;5108707;28;20050;-75
2023/03/13 13:42:40;;;;;;;3.00;0.70;;;;;;;;;;5108489;28;20354;-75
2023/03/13 13:45:18;;;;;;;1.92;0.60;;;;;;;;;;5109168;28;20051;-75
2023/03/13 13:47:50;;;;;;;5.65;0.80;;;;;;;;;;5108804;28;20048;-76
2023/03/13 13:50:27;;;;;;;1.35;0.70;;;;;;;;;;5108477;28;20055;-76
2023/03/13 13:53:30;;;;;;;2.42;0.73;;;;;;;;;;5108603;28;20043;-77
2023/03/13 13:56:09;;;;;;;3.05;0.90;;;;;;;;;;5108955;28;20044;-76
2023/03/13 13:58:45;;;;;;;1.98;0.65;;;;;;;;;;5108285;28;20039;-75
2023/03/13 14:01:16;;;;;;;3.33;0.70;;;;;;;;;;5108620;28;20059;-75
2023/03/13 14:03:49;;;;;;;1.38;0.70;;;;;;;;;;5106530;28;20438;-75
2023/03/13 14:06:34;;;;;;;2.00;0.63;;;;;;;;;;5108421;28;20506;-76
2023/03/13 14:09:25;;;;;;;3.60;0.82;;;;;;;;;;5108180;28;20058;-78
2023/03/13 14:11:55;;;;;;;1.65;0.70;;;;;;;;;;5107936;28;20051;-75
2023/03/13 14:14:26;;;;;;;4.57;0.63;;;;;;;;;;5108407;28;20055;-75
2023/03/13 14:16:57;;;;;;;1.33;0.63;;;;;;;;;;5108012;28;20066;-76
2023/03/13 14:19:30;;;;;;;1.05;0.50;;;;;;;;;;5107845;28;20058;-75
2023/03/13 14:22:06;;;;;;;1.95;0.73;;;;;;;;;;5107844;28;20058;-75
2023/03/13 14:24:37;;;;;;;1.38;0.60;;;;;;;;;;5108350;28;20054;-75
2023/03/13 14:27:19;;;;;;;2.22;0.50;;;;;;;;;;5107600;28;20509;-76
2023/03/13 14:30:08;;;;;;;1.27;0.50;;;;;;;;;;5108038;28;20043;-76
2023/03/13 14:32:39;;;;;;;2.65;0.82;;;;;;;;;;5108053;28;20043;-75
2023/03/13 14:35:13;;;;;;;1.00;0.50;;;;;;;;;;5107309;28;20054;-75
2023/03/13 14:37:47;;;;;;;6.93;0.60;;;;;;;;;;5105611;28;20422;-76
2023/03/13 14:40:25;;;;;;;2.92;0.77;;;;;;;;;;5107317;28;20048;-75
2023/03/13 14:43:00;;;;;;;3.88;0.95;;;;;;;;;;5107216;28;20047;-76
2023/03/13 14:45:33;;;;;;;4.43;1.10;;;;;;;;;;5107177;28;20051;-76
2023/03/13 14:48:20;;;;;;;5.05;0.95;;;;;;;;;;5107569;28;20055;-75
2023/03/13 14:50:54;;;;;;;3.15;0.60;;;;;;;;;;5105520;28;20533;-75
2023/03/13 14:53:59;;;;;;;2.20;0.73;;;;;;;;;;5105331;28;20040;-76
2023/03/13 14:56:44;;;;;;;1.55;0.90;;;;;;;;;;5107518;28;20121;-75
2023/03/13 14:59:22;;;;;;;1.20;0.50;;;;;;;;;;5106854;28;20050;-76
2023/03/13 15:02:23;;;;;;;2.40;0.70;;;;;;;;;;5106687;28;20051;-77
2023/03/13 15:05:05;;;;;;;1.83;0.50;;;;;;;;;;5091626;28;20066;-77
2023/03/13 15:07:52;;;;;;;9.20;0.90;;;;;;;;;;5107037;28;20066;-76
2023/03/13 15:10:36;;;;;;;1.08;0.55;;;;;;;;;;5106963;28;20498;-75
2023/03/13 15:13:36;;;;;;;2.08;0.50;;;;;;;;;;5107135;28;20524;-77
2023/03/13 15:16:15;;;;;;;0.70;0.60;;;;;;;;;;5106853;28;20047;-75
2023/03/13 15:18:47;;;;;;;1.10;0.50;;;;;;;;;;5107062;28;20082;-75
2023/03/13 15:21:18;;;;;;;0.60;0.60;;;;;;;;;;5106174;28;20047;-76
2023/03/13 15:23:53;;;;;;;1.13;0.70;;;;;;;;;;5107793;28;20674;-76
2023/03/13 15:26:26;;;;;;;6.07;0.80;;;;;;;;;;5107399;28;20047;-76
2023/03/13 15:28:56;;;;;;;5.00;0.68;;;;;;;;;;5107101;28;20048;-76
2023/03/13 15:31:28;;;;;;;0.60;0.45;;;;;;;;;;5107066;28;20047;-76
2023/03/13 15:34:00;;;;;;;4.40;1.33;;;;;;;;;;5105894;28;20569;-77
2023/03/13 15:36:32;;;;;;;1.95;0.68;;;;;;;;;;5107018;28;20058;-77
2023/03/13 15:39:04;;;;;;;1.10;0.60;;;;;;;;;;5106393;28;20056;-76
2023/03/13 15:41:35;;;;;;;1.40;0.60;;;;;;;;;;5105169;28;20048;-76
2023/03/13 15:44:07;;;;;;;4.03;0.80;;;;;;;;;;5106694;28;20054;-76
2023/03/13 15:46:37;;;;;;;0.70;0.43;;;;;;;;;;5106313;28;20048;-76